sensor_id;sensor_type;location;lat;lon;timestamp;P1;durP1;ratioP1;P2;durP2;ratioP2
75937;SDS011;64615;32.062;34.834;2024-02-21T00:00:55;8.18;;;4.10;;
75937;SDS011;64615;32.062;34.834;2024-02-21T00:03:21;7.65;;;4.00;;
75937;SDS011;64615;32.062;34.834;2024-02-21T00:05:46;8.48;;;4.28;;
75937;SDS011;64615;32.062;34.834;2024-02-21T00:08:12;8.77;;;4.25;;
75937;SDS011;64615;32.062;34.834;2024-02-21T00:10:38;9.52;;;4.70;;
75937;SDS011;64615;32.062;34.834;2024-02-21T00:13:03;7.38;;;4.22;;
75937;SDS011;64615;32.062;34.834;2024-02-21T00:15:29;8.07;;;4.43;;
75937;SDS011;64615;32.062;34.834;2024-02-21T00:17:54;7.78;;;4.07;;
75937;SDS011;64615;32.062;34.834;2024-02-21T00:20:20;7.85;;;4.43;;
75937;SDS011;64615;32.062;34.834;2024-02-21T00:22:46;8.95;;;4.13;;
75937;SDS011;64615;32.062;34.834;2024-02-21T00:25:11;7.38;;;4.35;;
75937;SDS011;64615;32.062;34.834;2024-02-21T00:27:37;8.45;;;4.43;;
75937;SDS011;64615;32.062;34.834;2024-02-21T00:30:04;8.57;;;4.50;;
75937;SDS011;64615;32.062;34.834;2024-02-21T00:32:30;9.10;;;4.40;;
75937;SDS011;64615;32.062;34.834;2024-02-21T00:34:59;8.88;;;4.07;;
75937;SDS011;64615;32.062;34.834;2024-02-21T00:37:25;8.35;;;4.30;;
75937;SDS011;64615;32.062;34.834;2024-02-21T00:39:50;10.00;;;4.38;;
75937;SDS011;64615;32.062;34.834;2024-02-21T00:42:16;8.40;;;4.38;;
75937;SDS011;64615;32.062;34.834;2024-02-21T00:44:41;7.63;;;4.18;;
75937;SDS011;64615;32.062;34.834;2024-02-21T00:47:07;8.02;;;4.50;;
75937;SDS011;64615;32.062;34.834;2024-02-21T00:49:33;7.20;;;4.15;;
75937;SDS011;64615;32.062;34.834;2024-02-21T00:51:58;8.10;;;4.15;;
75937;SDS011;64615;32.062;34.834;2024-02-21T00:54:24;8.93;;;4.30;;
75937;SDS011;64615;32.062;34.834;2024-02-21T00:56:49;10.10;;;4.55;;
75937;SDS011;64615;32.062;34.834;2024-02-21T00:59:15;8.57;;;4.05;;
75937;SDS011;64615;32.062;34.834;2024-02-21T01:01:40;7.20;;;4.00;;
75937;SDS011;64615;32.062;34.834;2024-02-21T01:04:08;8.60;;;4.32;;
75937;SDS011;64615;32.062;34.834;2024-02-21T01:06:34;9.40;;;4.25;;
75937;SDS011;64615;32.062;34.834;2024-02-21T01:09:00;7.72;;;4.20;;
75937;SDS011;64615;32.062;34.834;2024-02-21T01:11:26;8.85;;;4.55;;
75937;SDS011;64615;32.062;34.834;2024-02-21T01:13:52;9.40;;;3.92;;
75937;SDS011;64615;32.062;34.834;2024-02-21T01:16:18;8.98;;;4.03;;
75937;SDS011;64615;32.062;34.834;2024-02-21T01:18:44;9.43;;;4.15;;
75937;SDS011;64615;32.062;34.834;2024-02-21T01:21:09;9.15;;;3.97;;
75937;SDS011;64615;32.062;34.834;2024-02-21T01:23:35;9.40;;;3.75;;
75937;SDS011;64615;32.062;34.834;2024-02-21T01:26:02;8.65;;;4.13;;
75937;SDS011;64615;32.062;34.834;2024-02-21T01:28:28;9.68;;;4.10;;
75937;SDS011;64615;32.062;34.834;2024-02-21T01:30:54;6.68;;;3.97;;
75937;SDS011;64615;32.062;34.834;2024-02-21T01:33:20;8.50;;;4.20;;
75937;SDS011;64615;32.062;34.834;2024-02-21T01:35:46;7.85;;;3.72;;
75937;SDS011;64615;32.062;34.834;2024-02-21T01:38:14;8.73;;;3.90;;
75937;SDS011;64615;32.062;34.834;2024-02-21T01:40:40;9.65;;;3.88;;
75937;SDS011;64615;32.062;34.834;2024-02-21T01:43:14;7.13;;;3.83;;
75937;SDS011;64615;32.062;34.834;2024-02-21T01:45:52;7.65;;;3.90;;
75937;SDS011;64615;32.062;34.834;2024-02-21T01:48:20;7.20;;;3.75;;
75937;SDS011;64615;32.062;34.834;2024-02-21T01:50:51;8.82;;;3.85;;
75937;SDS011;64615;32.062;34.834;2024-02-21T01:53:27;7.63;;;3.58;;
75937;SDS011;64615;32.062;34.834;2024-02-21T01:55:55;7.45;;;3.78;;
75937;SDS011;64615;32.062;34.834;2024-02-21T01:58:21;6.70;;;3.83;;
75937;SDS011;64615;32.062;34.834;2024-02-21T02:00:48;8.73;;;3.95;;
75937;SDS011;64615;32.062;34.834;2024-02-21T02:03:17;8.43;;;3.90;;
75937;SDS011;64615;32.062;34.834;2024-02-21T02:05:46;8.98;;;3.53;;
75937;SDS011;64615;32.062;34.834;2024-02-21T02:08:13;7.03;;;3.72;;
75937;SDS011;64615;32.062;34.834;2024-02-21T02:10:40;8.32;;;4.00;;
75937;SDS011;64615;32.062;34.834;2024-02-21T02:13:06;8.48;;;4.15;;
75937;SDS011;64615;32.062;34.834;2024-02-21T02:15:41;8.38;;;4.00;;
75937;SDS011;64615;32.062;34.834;2024-02-21T02:18:08;8.10;;;3.88;;
75937;SDS011;64615;32.062;34.834;2024-02-21T02:20:39;6.90;;;3.42;;
75937;SDS011;64615;32.062;34.834;2024-02-21T02:23:26;7.68;;;3.88;;
75937;SDS011;64615;32.062;34.834;2024-02-21T02:25:53;7.75;;;3.70;;
75937;SDS011;64615;32.062;34.834;2024-02-21T02:28:18;8.05;;;4.00;;
75937;SDS011;64615;32.062;34.834;2024-02-21T02:30:45;9.40;;;4.03;;
75937;SDS011;64615;32.062;34.834;2024-02-21T02:33:11;7.32;;;4.00;;
75937;SDS011;64615;32.062;34.834;2024-02-21T02:35:37;8.55;;;3.92;;
75937;SDS011;64615;32.062;34.834;2024-02-21T02:38:03;8.13;;;3.65;;
75937;SDS011;64615;32.062;34.834;2024-02-21T02:40:29;6.63;;;3.70;;
75937;SDS011;64615;32.062;34.834;2024-02-21T02:42:56;5.53;;;3.13;;
75937;SDS011;64615;32.062;34.834;2024-02-21T02:45:22;8.23;;;4.05;;
75937;SDS011;64615;32.062;34.834;2024-02-21T02:47:49;8.52;;;3.63;;
75937;SDS011;64615;32.062;34.834;2024-02-21T02:50:14;7.07;;;3.60;;
75937;SDS011;64615;32.062;34.834;2024-02-21T02:52:40;7.03;;;3.65;;
75937;SDS011;64615;32.062;34.834;2024-02-21T02:55:06;7.10;;;3.30;;
75937;SDS011;64615;32.062;34.834;2024-02-21T02:57:32;8.55;;;3.80;;
75937;SDS011;64615;32.062;34.834;2024-02-21T02:59:58;6.82;;;3.53;;
75937;SDS011;64615;32.062;34.834;2024-02-21T03:02:24;6.93;;;3.33;;
75937;SDS011;64615;32.062;34.834;2024-02-21T03:04:49;8.13;;;3.40;;
75937;SDS011;64615;32.062;34.834;2024-02-21T03:07:15;7.28;;;3.13;;
75937;SDS011;64615;32.062;34.834;2024-02-21T03:09:41;6.93;;;3.50;;
75937;SDS011;64615;32.062;34.834;2024-02-21T03:12:10;6.78;;;3.38;;
75937;SDS011;64615;32.062;34.834;2024-02-21T03:14:36;8.00;;;4.10;;
75937;SDS011;64615;32.062;34.834;2024-02-21T03:17:02;7.53;;;3.70;;
75937;SDS011;64615;32.062;34.834;2024-02-21T03:19:28;6.93;;;3.08;;
75937;SDS011;64615;32.062;34.834;2024-02-21T03:21:54;6.78;;;3.53;;
75937;SDS011;64615;32.062;34.834;2024-02-21T03:24:20;8.18;;;3.60;;
75937;SDS011;64615;32.062;34.834;2024-02-21T03:26:46;6.80;;;3.63;;
75937;SDS011;64615;32.062;34.834;2024-02-21T03:29:14;6.90;;;3.40;;
75937;SDS011;64615;32.062;34.834;2024-02-21T03:31:40;7.57;;;3.38;;
75937;SDS011;64615;32.062;34.834;2024-02-21T03:34:06;7.93;;;3.45;;
75937;SDS011;64615;32.062;34.834;2024-02-21T03:36:32;7.30;;;3.28;;
75937;SDS011;64615;32.062;34.834;2024-02-21T03:38:58;7.80;;;3.35;;
75937;SDS011;64615;32.062;34.834;2024-02-21T03:41:23;6.57;;;3.15;;
75937;SDS011;64615;32.062;34.834;2024-02-21T03:43:49;9.20;;;3.15;;
75937;SDS011;64615;32.062;34.834;2024-02-21T03:46:15;7.30;;;3.05;;
75937;SDS011;64615;32.062;34.834;2024-02-21T03:48:40;6.65;;;3.20;;
75937;SDS011;64615;32.062;34.834;2024-02-21T03:51:06;6.90;;;3.10;;
75937;SDS011;64615;32.062;34.834;2024-02-21T03:53:32;7.47;;;3.38;;
75937;SDS011;64615;32.062;34.834;2024-02-21T03:56:00;7.07;;;2.90;;
75937;SDS011;64615;32.062;34.834;2024-02-21T03:58:29;6.88;;;2.83;;
75937;SDS011;64615;32.062;34.834;2024-02-21T04:00:59;8.02;;;3.10;;
75937;SDS011;64615;32.062;34.834;2024-02-21T04:03:26;6.18;;;2.70;;
75937;SDS011;64615;32.062;34.834;2024-02-21T04:05:52;8.30;;;2.90;;
75937;SDS011;64615;32.062;34.834;2024-02-21T04:08:17;8.95;;;2.85;;
75937;SDS011;64615;32.062;34.834;2024-02-21T04:10:43;6.68;;;2.75;;
75937;SDS011;64615;32.062;34.834;2024-02-21T04:13:09;7.60;;;2.85;;
75937;SDS011;64615;32.062;34.834;2024-02-21T04:15:35;7.40;;;3.20;;
75937;SDS011;64615;32.062;34.834;2024-02-21T04:18:01;8.68;;;3.10;;
75937;SDS011;64615;32.062;34.834;2024-02-21T04:20:28;6.05;;;3.22;;
75937;SDS011;64615;32.062;34.834;2024-02-21T04:22:54;5.38;;;3.03;;
75937;SDS011;64615;32.062;34.834;2024-02-21T04:25:20;5.85;;;2.90;;
75937;SDS011;64615;32.062;34.834;2024-02-21T04:27:46;6.18;;;2.88;;
75937;SDS011;64615;32.062;34.834;2024-02-21T04:30:12;5.85;;;3.03;;
75937;SDS011;64615;32.062;34.834;2024-02-21T04:32:38;7.28;;;2.88;;
75937;SDS011;64615;32.062;34.834;2024-02-21T04:35:04;6.80;;;2.90;;
75937;SDS011;64615;32.062;34.834;2024-02-21T04:37:30;5.70;;;2.70;;
75937;SDS011;64615;32.062;34.834;2024-02-21T04:39:56;7.10;;;2.97;;
75937;SDS011;64615;32.062;34.834;2024-02-21T04:42:21;7.80;;;2.92;;
75937;SDS011;64615;32.062;34.834;2024-02-21T04:44:47;6.57;;;2.80;;
75937;SDS011;64615;32.062;34.834;2024-02-21T04:47:13;9.38;;;3.08;;
75937;SDS011;64615;32.062;34.834;2024-02-21T04:49:38;8.55;;;3.17;;
75937;SDS011;64615;32.062;34.834;2024-02-21T04:52:04;20.00;;;3.85;;
75937;SDS011;64615;32.062;34.834;2024-02-21T04:54:30;18.17;;;3.60;;
75937;SDS011;64615;32.062;34.834;2024-02-21T04:56:55;14.15;;;4.20;;
75937;SDS011;64615;32.062;34.834;2024-02-21T04:59:21;25.35;;;3.85;;
75937;SDS011;64615;32.062;34.834;2024-02-21T05:01:47;22.30;;;3.75;;
75937;SDS011;64615;32.062;34.834;2024-02-21T05:04:12;14.45;;;3.70;;
75937;SDS011;64615;32.062;34.834;2024-02-21T05:06:38;13.43;;;3.47;;
75937;SDS011;64615;32.062;34.834;2024-02-21T05:09:05;17.70;;;3.60;;
75937;SDS011;64615;32.062;34.834;2024-02-21T05:11:31;15.02;;;3.25;;
75937;SDS011;64615;32.062;34.834;2024-02-21T05:13:57;14.70;;;3.47;;
75937;SDS011;64615;32.062;34.834;2024-02-21T05:16:23;15.35;;;3.92;;
75937;SDS011;64615;32.062;34.834;2024-02-21T05:18:48;12.23;;;3.15;;
75937;SDS011;64615;32.062;34.834;2024-02-21T05:21:14;16.10;;;4.00;;
75937;SDS011;64615;32.062;34.834;2024-02-21T05:23:40;22.17;;;3.70;;
75937;SDS011;64615;32.062;34.834;2024-02-21T05:26:06;35.40;;;4.95;;
75937;SDS011;64615;32.062;34.834;2024-02-21T05:28:31;24.70;;;4.65;;
75937;SDS011;64615;32.062;34.834;2024-02-21T05:30:57;17.05;;;3.95;;
75937;SDS011;64615;32.062;34.834;2024-02-21T05:33:23;22.50;;;4.50;;
75937;SDS011;64615;32.062;34.834;2024-02-21T05:35:50;34.17;;;5.13;;
75937;SDS011;64615;32.062;34.834;2024-02-21T05:38:16;23.45;;;5.88;;
75937;SDS011;64615;32.062;34.834;2024-02-21T05:40:42;16.67;;;4.90;;
75937;SDS011;64615;32.062;34.834;2024-02-21T05:43:08;18.20;;;4.88;;
75937;SDS011;64615;32.062;34.834;2024-02-21T05:45:34;26.00;;;4.60;;
75937;SDS011;64615;32.062;34.834;2024-02-21T05:48:00;24.38;;;5.10;;
75937;SDS011;64615;32.062;34.834;2024-02-21T05:50:25;21.30;;;4.80;;
75937;SDS011;64615;32.062;34.834;2024-02-21T05:52:55;24.92;;;4.63;;
75937;SDS011;64615;32.062;34.834;2024-02-21T05:55:21;19.80;;;4.93;;
75937;SDS011;64615;32.062;34.834;2024-02-21T05:57:47;25.70;;;4.55;;
75937;SDS011;64615;32.062;34.834;2024-02-21T06:00:13;33.10;;;4.88;;
75937;SDS011;64615;32.062;34.834;2024-02-21T06:02:40;25.70;;;5.57;;
75937;SDS011;64615;32.062;34.834;2024-02-21T06:05:06;24.13;;;5.57;;
75937;SDS011;64615;32.062;34.834;2024-02-21T06:07:33;24.55;;;5.38;;
75937;SDS011;64615;32.062;34.834;2024-02-21T06:10:01;18.33;;;4.60;;
75937;SDS011;64615;32.062;34.834;2024-02-21T06:12:28;19.77;;;5.47;;
75937;SDS011;64615;32.062;34.834;2024-02-21T06:14:53;19.65;;;4.53;;
75937;SDS011;64615;32.062;34.834;2024-02-21T06:17:19;19.73;;;5.35;;
75937;SDS011;64615;32.062;34.834;2024-02-21T06:19:44;17.17;;;5.45;;
75937;SDS011;64615;32.062;34.834;2024-02-21T06:22:11;20.60;;;5.03;;
75937;SDS011;64615;32.062;34.834;2024-02-21T06:24:37;16.02;;;4.85;;
75937;SDS011;64615;32.062;34.834;2024-02-21T06:27:03;17.27;;;5.28;;
75937;SDS011;64615;32.062;34.834;2024-02-21T06:29:32;20.23;;;4.80;;
75937;SDS011;64615;32.062;34.834;2024-02-21T06:31:58;17.00;;;4.18;;
75937;SDS011;64615;32.062;34.834;2024-02-21T06:34:24;19.95;;;4.65;;
75937;SDS011;64615;32.062;34.834;2024-02-21T06:36:50;15.18;;;4.05;;
75937;SDS011;64615;32.062;34.834;2024-02-21T06:39:16;14.60;;;4.07;;
75937;SDS011;64615;32.062;34.834;2024-02-21T06:41:42;14.70;;;4.10;;
75937;SDS011;64615;32.062;34.834;2024-02-21T06:44:08;13.95;;;4.18;;
75937;SDS011;64615;32.062;34.834;2024-02-21T06:46:33;11.82;;;3.45;;
75937;SDS011;64615;32.062;34.834;2024-02-21T06:49:00;12.95;;;3.75;;
75937;SDS011;64615;32.062;34.834;2024-02-21T06:51:26;18.52;;;4.53;;
75937;SDS011;64615;32.062;34.834;2024-02-21T06:53:52;16.20;;;3.97;;
75937;SDS011;64615;32.062;34.834;2024-02-21T06:56:19;20.20;;;4.30;;
75937;SDS011;64615;32.062;34.834;2024-02-21T06:58:45;25.35;;;4.25;;
75937;SDS011;64615;32.062;34.834;2024-02-21T07:01:11;15.88;;;4.00;;
75937;SDS011;64615;32.062;34.834;2024-02-21T07:03:36;17.02;;;4.47;;
75937;SDS011;64615;32.062;34.834;2024-02-21T07:06:02;21.17;;;4.55;;
75937;SDS011;64615;32.062;34.834;2024-02-21T07:08:28;19.77;;;5.57;;
75937;SDS011;64615;32.062;34.834;2024-02-21T07:10:54;27.58;;;7.22;;
75937;SDS011;64615;32.062;34.834;2024-02-21T07:13:20;20.65;;;6.20;;
75937;SDS011;64615;32.062;34.834;2024-02-21T07:15:46;21.80;;;6.03;;
75937;SDS011;64615;32.062;34.834;2024-02-21T07:18:13;18.88;;;5.80;;
75937;SDS011;64615;32.062;34.834;2024-02-21T07:20:38;18.70;;;5.80;;
75937;SDS011;64615;32.062;34.834;2024-02-21T07:23:06;17.60;;;5.20;;
75937;SDS011;64615;32.062;34.834;2024-02-21T07:25:32;17.88;;;5.03;;
75937;SDS011;64615;32.062;34.834;2024-02-21T07:27:58;14.63;;;5.32;;
75937;SDS011;64615;32.062;34.834;2024-02-21T07:30:24;15.80;;;4.65;;
75937;SDS011;64615;32.062;34.834;2024-02-21T07:32:50;17.42;;;3.17;;
75937;SDS011;64615;32.062;34.834;2024-02-21T07:35:17;13.38;;;2.33;;
75937;SDS011;64615;32.062;34.834;2024-02-21T07:37:43;8.90;;;2.40;;
75937;SDS011;64615;32.062;34.834;2024-02-21T07:40:15;8.13;;;1.98;;
75937;SDS011;64615;32.062;34.834;2024-02-21T07:42:42;9.65;;;2.28;;
75937;SDS011;64615;32.062;34.834;2024-02-21T07:45:08;12.48;;;2.80;;
75937;SDS011;64615;32.062;34.834;2024-02-21T07:47:35;12.75;;;2.67;;
75937;SDS011;64615;32.062;34.834;2024-02-21T07:50:02;11.43;;;2.72;;
75937;SDS011;64615;32.062;34.834;2024-02-21T07:52:28;10.55;;;2.85;;
75937;SDS011;64615;32.062;34.834;2024-02-21T07:54:54;13.55;;;2.70;;
75937;SDS011;64615;32.062;34.834;2024-02-21T07:57:20;11.10;;;2.40;;
75937;SDS011;64615;32.062;34.834;2024-02-21T07:59:45;8.82;;;2.55;;
75937;SDS011;64615;32.062;34.834;2024-02-21T08:02:13;8.52;;;2.30;;
75937;SDS011;64615;32.062;34.834;2024-02-21T08:04:39;8.93;;;2.45;;
75937;SDS011;64615;32.062;34.834;2024-02-21T08:07:05;7.97;;;2.50;;
75937;SDS011;64615;32.062;34.834;2024-02-21T08:09:30;12.23;;;2.90;;
75937;SDS011;64615;32.062;34.834;2024-02-21T08:11:56;7.35;;;2.38;;
75937;SDS011;64615;32.062;34.834;2024-02-21T08:14:22;10.35;;;2.50;;
75937;SDS011;64615;32.062;34.834;2024-02-21T08:16:50;7.65;;;2.38;;
75937;SDS011;64615;32.062;34.834;2024-02-21T08:19:16;7.30;;;2.22;;
75937;SDS011;64615;32.062;34.834;2024-02-21T08:21:42;8.15;;;2.47;;
75937;SDS011;64615;32.062;34.834;2024-02-21T08:24:07;12.48;;;3.00;;
75937;SDS011;64615;32.062;34.834;2024-02-21T08:26:33;12.38;;;2.50;;
75937;SDS011;64615;32.062;34.834;2024-02-21T08:28:59;15.85;;;2.78;;
75937;SDS011;64615;32.062;34.834;2024-02-21T08:31:26;18.00;;;2.78;;
75937;SDS011;64615;32.062;34.834;2024-02-21T08:33:59;10.93;;;2.47;;
75937;SDS011;64615;32.062;34.834;2024-02-21T08:36:35;18.67;;;2.70;;
75937;SDS011;64615;32.062;34.834;2024-02-21T08:39:01;9.77;;;2.22;;
75937;SDS011;64615;32.062;34.834;2024-02-21T08:41:30;10.82;;;2.95;;
75937;SDS011;64615;32.062;34.834;2024-02-21T08:43:56;5.35;;;2.08;;
75937;SDS011;64615;32.062;34.834;2024-02-21T08:46:25;7.30;;;2.05;;
75937;SDS011;64615;32.062;34.834;2024-02-21T08:48:51;6.65;;;2.15;;
75937;SDS011;64615;32.062;34.834;2024-02-21T08:51:17;7.75;;;2.30;;
75937;SDS011;64615;32.062;34.834;2024-02-21T08:53:43;10.60;;;2.30;;
75937;SDS011;64615;32.062;34.834;2024-02-21T08:56:09;8.35;;;1.98;;
75937;SDS011;64615;32.062;34.834;2024-02-21T08:58:39;6.93;;;2.00;;
75937;SDS011;64615;32.062;34.834;2024-02-21T09:01:05;8.02;;;2.30;;
75937;SDS011;64615;32.062;34.834;2024-02-21T09:03:35;7.97;;;2.30;;
75937;SDS011;64615;32.062;34.834;2024-02-21T09:06:02;7.35;;;2.38;;
75937;SDS011;64615;32.062;34.834;2024-02-21T09:08:28;6.90;;;2.38;;
75937;SDS011;64615;32.062;34.834;2024-02-21T09:10:54;6.72;;;2.20;;
75937;SDS011;64615;32.062;34.834;2024-02-21T09:13:20;7.35;;;2.42;;
75937;SDS011;64615;32.062;34.834;2024-02-21T09:15:46;9.07;;;2.38;;
75937;SDS011;64615;32.062;34.834;2024-02-21T09:18:14;7.25;;;2.30;;
75937;SDS011;64615;32.062;34.834;2024-02-21T09:20:40;6.18;;;2.42;;
75937;SDS011;64615;32.062;34.834;2024-02-21T09:23:05;6.07;;;2.03;;
75937;SDS011;64615;32.062;34.834;2024-02-21T09:25:31;6.03;;;2.20;;
75937;SDS011;64615;32.062;34.834;2024-02-21T09:27:57;6.53;;;2.40;;
75937;SDS011;64615;32.062;34.834;2024-02-21T09:30:25;6.47;;;1.95;;
75937;SDS011;64615;32.062;34.834;2024-02-21T09:32:51;6.70;;;2.30;;
75937;SDS011;64615;32.062;34.834;2024-02-21T09:35:18;6.55;;;2.08;;
75937;SDS011;64615;32.062;34.834;2024-02-21T09:37:43;6.07;;;2.10;;
75937;SDS011;64615;32.062;34.834;2024-02-21T09:40:09;8.63;;;2.00;;
75937;SDS011;64615;32.062;34.834;2024-02-21T09:42:39;6.63;;;2.15;;
75937;SDS011;64615;32.062;34.834;2024-02-21T09:45:07;8.23;;;2.40;;
75937;SDS011;64615;32.062;34.834;2024-02-21T09:50:21;4.60;;;1.70;;
75937;SDS011;64615;32.062;34.834;2024-02-21T09:52:48;5.47;;;2.30;;
75937;SDS011;64615;32.062;34.834;2024-02-21T09:55:15;7.65;;;2.15;;
75937;SDS011;64615;32.062;34.834;2024-02-21T09:57:43;6.70;;;2.05;;
75937;SDS011;64615;32.062;34.834;2024-02-21T10:00:09;5.72;;;1.98;;
75937;SDS011;64615;32.062;34.834;2024-02-21T10:02:36;7.88;;;2.15;;
75937;SDS011;64615;32.062;34.834;2024-02-21T10:05:02;7.93;;;2.35;;
75937;SDS011;64615;32.062;34.834;2024-02-21T10:07:30;6.00;;;2.25;;
75937;SDS011;64615;32.062;34.834;2024-02-21T10:10:03;9.00;;;2.30;;
75937;SDS011;64615;32.062;34.834;2024-02-21T10:12:29;5.97;;;2.03;;
75937;SDS011;64615;32.062;34.834;2024-02-21T10:15:04;7.93;;;2.17;;
75937;SDS011;64615;32.062;34.834;2024-02-21T10:17:34;5.35;;;1.65;;
75937;SDS011;64615;32.062;34.834;2024-02-21T10:20:08;6.22;;;2.33;;
75937;SDS011;64615;32.062;34.834;2024-02-21T10:22:34;7.78;;;2.30;;
75937;SDS011;64615;32.062;34.834;2024-02-21T10:25:14;8.93;;;2.10;;
75937;SDS011;64615;32.062;34.834;2024-02-21T10:27:40;7.43;;;1.80;;
75937;SDS011;64615;32.062;34.834;2024-02-21T10:30:13;5.65;;;2.20;;
75937;SDS011;64615;32.062;34.834;2024-02-21T10:32:49;4.97;;;2.03;;
75937;SDS011;64615;32.062;34.834;2024-02-21T10:35:24;7.28;;;2.15;;
75937;SDS011;64615;32.062;34.834;2024-02-21T10:37:54;7.20;;;2.20;;
75937;SDS011;64615;32.062;34.834;2024-02-21T10:40:24;7.45;;;2.20;;
75937;SDS011;64615;32.062;34.834;2024-02-21T10:42:59;7.45;;;2.00;;
75937;SDS011;64615;32.062;34.834;2024-02-21T10:45:29;9.85;;;2.22;;
75937;SDS011;64615;32.062;34.834;2024-02-21T10:48:06;12.73;;;2.22;;
75937;SDS011;64615;32.062;34.834;2024-02-21T10:50:53;6.82;;;2.30;;
75937;SDS011;64615;32.062;34.834;2024-02-21T10:56:31;9.75;;;2.30;;
75937;SDS011;64615;32.062;34.834;2024-02-21T10:59:02;10.18;;;2.53;;
75937;SDS011;64615;32.062;34.834;2024-02-21T11:01:31;7.03;;;2.00;;
75937;SDS011;64615;32.062;34.834;2024-02-21T11:04:01;6.13;;;2.20;;
75937;SDS011;64615;32.062;34.834;2024-02-21T11:06:29;7.78;;;2.20;;
75937;SDS011;64615;32.062;34.834;2024-02-21T11:09:08;6.13;;;2.30;;
75937;SDS011;64615;32.062;34.834;2024-02-21T11:11:38;9.85;;;2.40;;
75937;SDS011;64615;32.062;34.834;2024-02-21T11:14:09;8.82;;;2.55;;
75937;SDS011;64615;32.062;34.834;2024-02-21T11:16:36;6.45;;;1.92;;
75937;SDS011;64615;32.062;34.834;2024-02-21T11:19:07;6.57;;;2.50;;
75937;SDS011;64615;32.062;34.834;2024-02-21T11:21:35;6.88;;;2.28;;
75937;SDS011;64615;32.062;34.834;2024-02-21T11:24:02;8.70;;;2.40;;
75937;SDS011;64615;32.062;34.834;2024-02-21T11:26:29;9.30;;;2.75;;
75937;SDS011;64615;32.062;34.834;2024-02-21T11:28:59;7.70;;;2.20;;
75937;SDS011;64615;32.062;34.834;2024-02-21T11:31:26;7.05;;;2.10;;
75937;SDS011;64615;32.062;34.834;2024-02-21T11:33:52;6.45;;;2.38;;
75937;SDS011;64615;32.062;34.834;2024-02-21T11:36:25;8.15;;;2.50;;
75937;SDS011;64615;32.062;34.834;2024-02-21T11:38:52;7.13;;;2.20;;
75937;SDS011;64615;32.062;34.834;2024-02-21T11:41:21;6.53;;;2.20;;
75937;SDS011;64615;32.062;34.834;2024-02-21T11:43:48;7.30;;;2.05;;
75937;SDS011;64615;32.062;34.834;2024-02-21T11:46:15;5.70;;;1.90;;
75937;SDS011;64615;32.062;34.834;2024-02-21T11:48:41;6.45;;;2.10;;
75937;SDS011;64615;32.062;34.834;2024-02-21T11:51:09;6.72;;;2.20;;
75937;SDS011;64615;32.062;34.834;2024-02-21T11:53:36;6.60;;;2.17;;
75937;SDS011;64615;32.062;34.834;2024-02-21T11:56:02;6.47;;;2.30;;
75937;SDS011;64615;32.062;34.834;2024-02-21T11:58:28;5.43;;;2.30;;
75937;SDS011;64615;32.062;34.834;2024-02-21T12:00:55;7.55;;;2.10;;
75937;SDS011;64615;32.062;34.834;2024-02-21T12:03:21;6.57;;;2.58;;
75937;SDS011;64615;32.062;34.834;2024-02-21T12:05:47;8.73;;;2.42;;
75937;SDS011;64615;32.062;34.834;2024-02-21T12:08:13;8.07;;;2.10;;
75937;SDS011;64615;32.062;34.834;2024-02-21T12:10:38;7.85;;;2.40;;
75937;SDS011;64615;32.062;34.834;2024-02-21T12:13:10;11.13;;;2.35;;
75937;SDS011;64615;32.062;34.834;2024-02-21T12:15:38;6.03;;;2.15;;
75937;SDS011;64615;32.062;34.834;2024-02-21T12:18:05;6.35;;;2.10;;
75937;SDS011;64615;32.062;34.834;2024-02-21T12:20:31;4.75;;;2.10;;
75937;SDS011;64615;32.062;34.834;2024-02-21T12:22:59;7.32;;;2.00;;
75937;SDS011;64615;32.062;34.834;2024-02-21T12:25:25;6.85;;;2.20;;
75937;SDS011;64615;32.062;34.834;2024-02-21T12:27:52;4.90;;;1.83;;
75937;SDS011;64615;32.062;34.834;2024-02-21T12:30:18;6.20;;;2.20;;
75937;SDS011;64615;32.062;34.834;2024-02-21T12:32:47;5.97;;;2.05;;
75937;SDS011;64615;32.062;34.834;2024-02-21T12:35:13;8.00;;;2.60;;
75937;SDS011;64615;32.062;34.834;2024-02-21T12:37:39;6.78;;;2.28;;
75937;SDS011;64615;32.062;34.834;2024-02-21T12:40:05;5.90;;;2.13;;
75937;SDS011;64615;32.062;34.834;2024-02-21T12:42:32;6.65;;;2.38;;
75937;SDS011;64615;32.062;34.834;2024-02-21T12:44:58;4.93;;;2.20;;
75937;SDS011;64615;32.062;34.834;2024-02-21T12:47:24;5.53;;;2.17;;
75937;SDS011;64615;32.062;34.834;2024-02-21T12:49:52;9.40;;;2.30;;
75937;SDS011;64615;32.062;34.834;2024-02-21T12:52:18;5.70;;;2.20;;
75937;SDS011;64615;32.062;34.834;2024-02-21T12:54:44;4.68;;;2.00;;
75937;SDS011;64615;32.062;34.834;2024-02-21T12:57:10;5.05;;;2.08;;
75937;SDS011;64615;32.062;34.834;2024-02-21T12:59:35;4.72;;;1.90;;
75937;SDS011;64615;32.062;34.834;2024-02-21T13:02:01;4.40;;;1.90;;
75937;SDS011;64615;32.062;34.834;2024-02-21T13:04:26;6.30;;;2.10;;
75937;SDS011;64615;32.062;34.834;2024-02-21T13:06:52;5.00;;;2.00;;
75937;SDS011;64615;32.062;34.834;2024-02-21T13:09:18;4.90;;;1.83;;
75937;SDS011;64615;32.062;34.834;2024-02-21T13:11:44;5.88;;;1.83;;
75937;SDS011;64615;32.062;34.834;2024-02-21T13:14:11;7.25;;;2.45;;
75937;SDS011;64615;32.062;34.834;2024-02-21T13:16:37;5.90;;;2.53;;
75937;SDS011;64615;32.062;34.834;2024-02-21T13:19:06;4.30;;;2.08;;
75937;SDS011;64615;32.062;34.834;2024-02-21T13:21:35;4.95;;;1.88;;
75937;SDS011;64615;32.062;34.834;2024-02-21T13:24:01;7.68;;;2.30;;
75937;SDS011;64615;32.062;34.834;2024-02-21T13:26:27;6.88;;;2.30;;
75937;SDS011;64615;32.062;34.834;2024-02-21T13:28:53;5.35;;;2.17;;
75937;SDS011;64615;32.062;34.834;2024-02-21T13:31:19;5.78;;;2.10;;
75937;SDS011;64615;32.062;34.834;2024-02-21T13:33:46;6.03;;;2.00;;
75937;SDS011;64615;32.062;34.834;2024-02-21T13:36:11;4.68;;;2.03;;
75937;SDS011;64615;32.062;34.834;2024-02-21T13:38:37;4.68;;;1.95;;
75937;SDS011;64615;32.062;34.834;2024-02-21T13:41:06;6.93;;;2.10;;
75937;SDS011;64615;32.062;34.834;2024-02-21T13:43:32;9.68;;;2.15;;
75937;SDS011;64615;32.062;34.834;2024-02-21T13:45:59;6.30;;;2.17;;
75937;SDS011;64615;32.062;34.834;2024-02-21T13:48:26;5.40;;;2.08;;
75937;SDS011;64615;32.062;34.834;2024-02-21T13:50:55;7.20;;;2.10;;
75937;SDS011;64615;32.062;34.834;2024-02-21T13:53:21;4.10;;;1.88;;
75937;SDS011;64615;32.062;34.834;2024-02-21T13:55:48;5.70;;;2.35;;
75937;SDS011;64615;32.062;34.834;2024-02-21T13:58:14;5.53;;;2.10;;
75937;SDS011;64615;32.062;34.834;2024-02-21T14:00:40;7.20;;;2.00;;
75937;SDS011;64615;32.062;34.834;2024-02-21T14:03:06;5.72;;;2.03;;
75937;SDS011;64615;32.062;34.834;2024-02-21T14:05:31;6.40;;;2.30;;
75937;SDS011;64615;32.062;34.834;2024-02-21T14:07:57;11.65;;;2.13;;
75937;SDS011;64615;32.062;34.834;2024-02-21T14:10:23;5.13;;;2.05;;
75937;SDS011;64615;32.062;34.834;2024-02-21T14:12:48;5.05;;;2.00;;
75937;SDS011;64615;32.062;34.834;2024-02-21T14:15:14;4.82;;;2.00;;
75937;SDS011;64615;32.062;34.834;2024-02-21T14:17:41;5.95;;;2.03;;
75937;SDS011;64615;32.062;34.834;2024-02-21T14:20:07;5.22;;;1.95;;
75937;SDS011;64615;32.062;34.834;2024-02-21T14:22:33;6.72;;;2.20;;
75937;SDS011;64615;32.062;34.834;2024-02-21T14:24:59;4.40;;;1.88;;
75937;SDS011;64615;32.062;34.834;2024-02-21T14:27:25;4.00;;;1.60;;
75937;SDS011;64615;32.062;34.834;2024-02-21T14:29:51;4.88;;;1.92;;
75937;SDS011;64615;32.062;34.834;2024-02-21T14:32:18;7.43;;;1.85;;
75937;SDS011;64615;32.062;34.834;2024-02-21T14:34:45;4.00;;;1.90;;